Keulen, Duitsland

8:28 AM CEST op 30 augustus 2014 (GMT +0200)
Lind | Change Station
CLOSE
Current Station
Persoonlijk weerstation
Location: Koeln, NRW
Geometrische hoogte: 177 ft
Nabije weerstations

Hoogte 177 ft 50.85 °N, 7.10 °E | Updated 3 minutes ago

Clear
Helder
60.4 °F
Voelt als 60.4 °F
N
2.0
Wind Variabel Wind van zuid
Gusts 3.0 mijl/u

Vandaag
Hoog -- | Laag -- °F
--% Kans op neerslag
Gisteren
Hoog -- | Laag -- °F
Precip. -- inches
6:41 AM 8:21 PM
Wassende halvemaan, 19% visible
Druk 30.04 inches
Zicht -9999.0 mijlen
Wolken
Dauwpunt 55 °F
Vochtigheid 83%
Neerslag 0.00 inches
Dikte sneeuw Niet beschikbaar.
UV 0.0 van de 12
Pollen Niet beschikbaar.
Luchtkwaliteit Niet beschikbaar.
Flu Activity Niet beschikbaar.
METAR EDDK 300620Z 18005KT CAVOK 15/12 Q1017 NOSIG

More Conditions Fewer Conditions

Druk 30.04 inches
Zicht -9999.0 mijlen
Wolken
Dauwpunt 55 °F
Vochtigheid 83%
Neerslag 0.00 inches
Dikte sneeuw Niet beschikbaar.
UV 0.0 van de 12
Pollen Niet beschikbaar.
Luchtkwaliteit Niet beschikbaar.
Flu Activity Niet beschikbaar.
METAR EDDK 300620Z 18005KT CAVOK 15/12 Q1017 NOSIG

More Conditions Fewer Conditions

10-Day Weather Forecast

Almanac

Astronomie

Aug. 30, 2014 Opkomst Ondergang
Werkelijke tijd 6:41 AM CEST 8:21 PM CEST
Burgerlijke schemering 6:06 AM CEST 8:55 PM CEST
Nautische schemering 5:24 AM CEST 9:38 PM CEST
Astronomische schemering 4:36 AM CEST 10:25 PM CEST
Maan 11:46 AM CEST 10:10 PM CEST
Golflengte van het zichtbare licht 14h 49m
Daglengte
13h 39m
Tomorrow will be 3m 43s shorter.
Wassende halvemaan, 19% of the Moon is Illuminated
Vandaag
Wassende halvemaan
sep 2
Eerste kwartier
sep 8
Volle maan
sep 15
Laatste kwartier
sep 24
Nieuw

Extremen gisteren

Country Highs Country Lows

Community

WunderPhotos

Upload Photos

1,748,465 foto’s ge-upload!

Nearby

Luchtkwaliteit

Not available.

Dikte sneeuw

Not available.

Aardbevingen

Stad Distance Mag. Time & Date
No recent earthquake activity has been reported nearby.
Minimum magnitude displayed is 2.5.

Watertemperatuur langs de kust

Plaats Temperatuur
Geen meldingen van stations

Nabije weerstations